createdAt,value
2018-11-27T00:00:09.822Z,1011.31
2018-11-27T00:01:09.832Z,1011.29
2018-11-27T00:02:09.845Z,1011.27
2018-11-27T00:03:09.849Z,1011.34
2018-11-27T00:04:09.856Z,1011.31
2018-11-27T00:05:09.891Z,1011.36
2018-11-27T00:06:09.875Z,1011.34
2018-11-27T00:07:09.882Z,1011.33
2018-11-27T00:08:09.892Z,1011.29
2018-11-27T00:09:09.900Z,1011.33
2018-11-27T00:10:09.910Z,1011.35
2018-11-27T00:11:09.917Z,1011.33
2018-11-27T00:12:09.927Z,1011.31
2018-11-27T00:13:09.936Z,1011.35
2018-11-27T00:14:09.948Z,1011.34
2018-11-27T00:15:09.954Z,1011.35
2018-11-27T00:16:09.961Z,1011.35
2018-11-27T00:17:09.970Z,1011.33
2018-11-27T00:18:09.981Z,1011.35
2018-11-27T00:19:09.989Z,1011.38
2018-11-27T00:20:09.998Z,1011.36
2018-11-27T00:21:10.006Z,1011.38
2018-11-27T00:22:10.016Z,1011.40
2018-11-27T00:23:10.024Z,1011.38
2018-11-27T00:24:10.032Z,1011.37
2018-11-27T00:25:10.046Z,1011.39
2018-11-27T00:26:10.049Z,1011.38
2018-11-27T00:27:10.058Z,1011.37
2018-11-27T00:28:10.067Z,1011.36
2018-11-27T00:29:10.078Z,1011.38
2018-11-27T00:30:10.086Z,1011.39
2018-11-27T00:31:10.094Z,1011.37
2018-11-27T00:32:10.102Z,1011.34
2018-11-27T00:33:10.112Z,1011.36
2018-11-27T00:34:10.121Z,1011.39
2018-11-27T00:35:10.132Z,1011.34
2018-11-27T00:36:10.139Z,1011.36
2018-11-27T00:37:10.147Z,1011.34
2018-11-27T00:38:10.157Z,1011.35
2018-11-27T00:39:10.163Z,1011.33
2018-11-27T00:40:10.173Z,1011.37
2018-11-27T00:41:10.193Z,1011.38
2018-11-27T00:42:10.193Z,1011.38
2018-11-27T00:43:10.199Z,1011.41
2018-11-27T00:44:10.211Z,1011.41
2018-11-27T00:45:10.220Z,1011.41
2018-11-27T00:46:10.234Z,1011.43
2018-11-27T00:47:10.235Z,1011.40
2018-11-27T00:48:10.244Z,1011.44
2018-11-27T00:49:10.254Z,1011.45
2018-11-27T00:50:10.268Z,1011.48
2018-11-27T00:51:10.271Z,1011.48
2018-11-27T00:52:10.282Z,1011.45
2018-11-27T00:53:10.290Z,1011.46
2018-11-27T00:54:10.297Z,1011.43
2018-11-27T00:55:10.315Z,1011.41
2018-11-27T00:56:10.318Z,1011.51
2018-11-27T00:57:10.324Z,1011.48
2018-11-27T00:58:10.333Z,1011.53
2018-11-27T00:59:10.347Z,1011.53
2018-11-27T01:00:10.353Z,1011.55
2018-11-27T01:01:10.359Z,1011.54
2018-11-27T01:02:10.368Z,1011.52
2018-11-27T01:03:10.376Z,1011.54
2018-11-27T01:04:10.385Z,1011.53
2018-11-27T01:05:10.394Z,1011.52
2018-11-27T01:06:10.403Z,1011.58
2018-11-27T01:07:10.413Z,1011.54
2018-11-27T01:08:10.422Z,1011.60
2018-11-27T01:09:10.431Z,1011.57
2018-11-27T01:10:10.437Z,1011.55
2018-11-27T01:11:10.486Z,1011.58
2018-11-27T01:12:10.463Z,1011.60
2018-11-27T01:13:10.466Z,1011.57
2018-11-27T01:14:10.484Z,1011.56
2018-11-27T01:15:10.494Z,1011.55
2018-11-27T01:16:10.491Z,1011.58
2018-11-27T01:17:10.507Z,1011.56
2018-11-27T01:18:10.526Z,1011.56
2018-11-27T01:19:10.524Z,1011.57
2018-11-27T01:20:10.531Z,1011.55
2018-11-27T01:21:10.536Z,1011.59
2018-11-27T01:22:10.547Z,1011.58
2018-11-27T01:23:10.554Z,1011.58
2018-11-27T01:24:10.574Z,1011.57
2018-11-27T01:25:10.577Z,1011.58
2018-11-27T01:26:10.580Z,1011.60
2018-11-27T01:27:10.590Z,1011.63
2018-11-27T01:28:10.599Z,1011.60
2018-11-27T01:29:10.611Z,1011.62
2018-11-27T01:30:10.617Z,1011.61
2018-11-27T01:31:10.624Z,1011.62
2018-11-27T01:32:10.633Z,1011.62
2018-11-27T01:33:10.644Z,1011.64
2018-11-27T01:34:10.652Z,1011.62
2018-11-27T01:35:10.660Z,1011.65
2018-11-27T01:36:10.669Z,1011.67
2018-11-27T01:37:10.679Z,1011.68
2018-11-27T01:38:10.686Z,1011.70
2018-11-27T01:39:10.708Z,1011.68
2018-11-27T01:40:10.707Z,1011.66
2018-11-27T01:41:10.714Z,1011.67
2018-11-27T01:42:10.740Z,1011.70
2018-11-27T01:43:10.733Z,1011.69
2018-11-27T01:44:10.740Z,1011.70
2018-11-27T01:45:10.748Z,1011.71
2018-11-27T01:46:10.757Z,1011.73
2018-11-27T01:47:10.766Z,1011.72
2018-11-27T01:48:10.781Z,1011.74
2018-11-27T01:49:10.785Z,1011.70
2018-11-27T01:50:10.793Z,1011.70
2018-11-27T01:51:10.801Z,1011.73
2018-11-27T01:52:10.811Z,1011.68
2018-11-27T01:53:10.823Z,1011.70
2018-11-27T01:54:10.832Z,1011.71
2018-11-27T01:55:10.839Z,1011.72
2018-11-27T01:56:10.848Z,1011.69
2018-11-27T01:57:10.854Z,1011.65
2018-11-27T01:58:10.863Z,1011.72
2018-11-27T01:59:10.873Z,1011.72
2018-11-27T02:00:10.886Z,1011.69
2018-11-27T02:01:10.894Z,1011.64
2018-11-27T02:02:10.910Z,1011.69
2018-11-27T02:03:10.907Z,1011.70
2018-11-27T02:04:10.915Z,1011.68
2018-11-27T02:05:10.927Z,1011.65
2018-11-27T02:06:10.934Z,1011.69
2018-11-27T02:07:10.943Z,1011.67
2018-11-27T02:08:10.951Z,1011.67
2018-11-27T02:09:10.964Z,1011.68
2018-11-27T02:10:10.969Z,1011.67
2018-11-27T02:11:10.985Z,1011.66
2018-11-27T02:12:10.987Z,1011.71
2018-11-27T02:13:11.010Z,1011.69
2018-11-27T02:14:11.010Z,1011.69
2018-11-27T02:15:11.064Z,1011.71
2018-11-27T02:16:11.022Z,1011.69
2018-11-27T02:17:11.031Z,1011.71
2018-11-27T02:18:11.040Z,1011.70
2018-11-27T02:19:11.048Z,1011.72
2018-11-27T02:20:11.058Z,1011.68
2018-11-27T02:21:11.068Z,1011.67
2018-11-27T02:22:11.082Z,1011.67
2018-11-27T02:23:11.083Z,1011.69
2018-11-27T02:24:11.094Z,1011.70
2018-11-27T02:25:11.107Z,1011.66
2018-11-27T02:26:11.110Z,1011.69
2018-11-27T02:27:11.119Z,1011.67
2018-11-27T02:28:11.138Z,1011.68
2018-11-27T02:29:11.140Z,1011.69
2018-11-27T02:30:11.148Z,1011.71
2018-11-27T02:31:11.167Z,1011.69
2018-11-27T02:32:11.162Z,1011.68
2018-11-27T02:33:11.175Z,1011.69
2018-11-27T02:34:11.181Z,1011.70
2018-11-27T02:35:11.190Z,1011.75
2018-11-27T02:36:11.202Z,1011.70
2018-11-27T02:37:11.208Z,1011.73
2018-11-27T02:38:11.217Z,1011.74
2018-11-27T02:39:11.229Z,1011.75
2018-11-27T02:40:11.234Z,1011.78
2018-11-27T02:41:11.251Z,1011.76
2018-11-27T02:42:11.320Z,1011.76
2018-11-27T02:43:11.301Z,1011.74
2018-11-27T02:44:11.268Z,1011.77
2018-11-27T02:45:11.278Z,1011.76
2018-11-27T02:46:11.287Z,1011.76
2018-11-27T02:47:11.313Z,1011.76
2018-11-27T02:48:11.303Z,1011.76
2018-11-27T02:49:11.313Z,1011.77
2018-11-27T02:50:11.321Z,1011.72
2018-11-27T02:51:11.330Z,1011.82
2018-11-27T02:52:11.338Z,1011.78
2018-11-27T02:53:11.349Z,1011.83
2018-11-27T02:54:11.355Z,1011.79
2018-11-27T02:55:11.366Z,1011.83
2018-11-27T02:56:11.373Z,1011.82
2018-11-27T02:57:11.385Z,1011.79
2018-11-27T02:58:11.394Z,1011.79
2018-11-27T02:59:11.404Z,1011.77
2018-11-27T03:00:11.410Z,1011.79
2018-11-27T03:01:11.424Z,1011.80
2018-11-27T03:02:11.428Z,1011.77
2018-11-27T03:03:11.437Z,1011.79
2018-11-27T03:04:11.447Z,1011.77
2018-11-27T03:05:11.457Z,1011.79
2018-11-27T03:06:11.473Z,1011.79
2018-11-27T03:07:11.472Z,1011.81
2018-11-27T03:08:11.479Z,1011.80
2018-11-27T03:09:11.493Z,1011.82
2018-11-27T03:10:11.498Z,1011.81
2018-11-27T03:11:11.515Z,1011.83
2018-11-27T03:12:11.520Z,1011.83
2018-11-27T03:13:11.527Z,1011.82
2018-11-27T03:14:11.534Z,1011.83
2018-11-27T03:15:11.681Z,1011.88
2018-11-27T03:16:11.550Z,1011.84
2018-11-27T03:17:11.561Z,1011.88
2018-11-27T03:18:11.565Z,1011.90
2018-11-27T03:19:11.584Z,1011.94
2018-11-27T03:20:11.584Z,1011.97
2018-11-27T03:21:11.594Z,1011.98
2018-11-27T03:22:11.605Z,1011.98
2018-11-27T03:23:11.615Z,1012.04
2018-11-27T03:24:11.626Z,1012.01
2018-11-27T03:25:11.629Z,1011.98
2018-11-27T03:26:11.668Z,1012.01
2018-11-27T03:27:11.646Z,1011.98
2018-11-27T03:28:11.666Z,1011.94
2018-11-27T03:29:11.664Z,1011.95
2018-11-27T03:30:11.676Z,1011.91
2018-11-27T03:31:11.681Z,1011.95
2018-11-27T03:32:11.724Z,1011.94
2018-11-27T03:33:11.720Z,1011.94
2018-11-27T03:34:11.713Z,1011.96
2018-11-27T03:35:11.716Z,1011.96
2018-11-27T03:36:11.787Z,1012.00
2018-11-27T03:37:11.737Z,1011.97
2018-11-27T03:38:11.748Z,1011.99
2018-11-27T03:39:11.760Z,1012.02
2018-11-27T03:40:11.782Z,1012.03
2018-11-27T03:41:11.774Z,1012.01
2018-11-27T03:42:11.778Z,1012.05
2018-11-27T03:43:11.795Z,1012.05
2018-11-27T03:44:11.793Z,1012.04
2018-11-27T03:45:11.811Z,1012.09
2018-11-27T03:46:11.815Z,1012.05
2018-11-27T03:47:11.850Z,1012.07
2018-11-27T03:48:11.860Z,1012.07
2018-11-27T03:49:11.839Z,1012.04
2018-11-27T03:50:11.853Z,1012.12
2018-11-27T03:51:11.855Z,1012.12
2018-11-27T03:52:11.865Z,1012.13
2018-11-27T03:53:11.876Z,1012.10
2018-11-27T03:54:11.905Z,1012.12
2018-11-27T03:55:11.895Z,1012.05
2018-11-27T03:56:11.913Z,1012.08
2018-11-27T03:57:11.909Z,1012.07
2018-11-27T03:58:11.921Z,1012.04
2018-11-27T03:59:11.929Z,1012.09
2018-11-27T04:00:11.938Z,1012.10
2018-11-27T04:01:11.944Z,1012.06
2018-11-27T04:02:11.951Z,1012.09
2018-11-27T04:03:11.968Z,1012.09
2018-11-27T04:04:11.978Z,1012.07
2018-11-27T04:05:11.996Z,1012.08
2018-11-27T04:06:11.992Z,1012.09
2018-11-27T04:07:11.999Z,1012.09
2018-11-27T04:08:12.013Z,1012.10
2018-11-27T04:09:12.019Z,1012.11
2018-11-27T04:10:12.023Z,1012.14
2018-11-27T04:11:12.034Z,1012.14
2018-11-27T04:12:12.042Z,1012.19
2018-11-27T04:13:12.052Z,1012.16
2018-11-27T04:14:12.065Z,1012.09
2018-11-27T04:15:12.071Z,1012.13
2018-11-27T04:16:12.077Z,1012.12
2018-11-27T04:17:12.088Z,1012.17
2018-11-27T04:18:12.102Z,1012.12
2018-11-27T04:19:12.111Z,1012.17
2018-11-27T04:20:12.124Z,1012.19
2018-11-27T04:21:12.126Z,1012.14
2018-11-27T04:22:12.130Z,1012.22
2018-11-27T04:23:12.141Z,1012.23
2018-11-27T04:24:12.151Z,1012.23
2018-11-27T04:25:12.158Z,1012.25
2018-11-27T04:26:12.168Z,1012.27
2018-11-27T04:27:12.174Z,1012.30
2018-11-27T04:28:12.185Z,1012.31
2018-11-27T04:29:12.204Z,1012.27
2018-11-27T04:30:12.202Z,1012.36
2018-11-27T04:31:12.227Z,1012.33
2018-11-27T04:32:12.221Z,1012.23
2018-11-27T04:33:12.459Z,1012.27
2018-11-27T04:34:12.257Z,1012.25
2018-11-27T04:35:12.245Z,1012.23
2018-11-27T04:36:12.254Z,1012.23
2018-11-27T04:37:12.266Z,1012.23
2018-11-27T04:38:12.274Z,1012.23
2018-11-27T04:39:12.281Z,1012.22
2018-11-27T04:40:12.293Z,1012.22
2018-11-27T04:41:12.299Z,1012.25
2018-11-27T04:42:12.310Z,1012.30
2018-11-27T04:43:12.422Z,1012.28
2018-11-27T04:44:12.329Z,1012.35
2018-11-27T04:45:12.340Z,1012.34
2018-11-27T04:46:12.344Z,1012.36
2018-11-27T04:47:12.353Z,1012.37
2018-11-27T04:48:12.375Z,1012.40
2018-11-27T04:49:12.368Z,1012.39
2018-11-27T04:50:12.395Z,1012.41
2018-11-27T04:51:12.386Z,1012.39
2018-11-27T04:52:12.395Z,1012.42
2018-11-27T04:53:12.433Z,1012.42
2018-11-27T04:54:12.415Z,1012.39
2018-11-27T04:55:12.427Z,1012.42
2018-11-27T04:56:12.441Z,1012.40
2018-11-27T04:57:12.441Z,1012.41
2018-11-27T04:58:12.452Z,1012.42
2018-11-27T04:59:12.467Z,1012.38
2018-11-27T05:00:12.472Z,1012.39
2018-11-27T05:01:12.475Z,1012.39
2018-11-27T05:02:12.487Z,1012.45
2018-11-27T05:03:12.492Z,1012.44
2018-11-27T05:04:12.503Z,1012.43
2018-11-27T05:05:12.529Z,1012.44
2018-11-27T05:06:12.525Z,1012.47
2018-11-27T05:07:12.527Z,1012.47
2018-11-27T05:08:12.543Z,1012.47
2018-11-27T05:09:12.553Z,1012.50
2018-11-27T05:10:12.559Z,1012.51
2018-11-27T05:11:12.565Z,1012.54
2018-11-27T05:12:12.582Z,1012.57
2018-11-27T05:13:12.590Z,1012.62
2018-11-27T05:14:12.589Z,1012.60
2018-11-27T05:15:12.616Z,1012.60
2018-11-27T05:16:12.609Z,1012.62
2018-11-27T05:17:12.617Z,1012.63
2018-11-27T05:18:12.627Z,1012.63
2018-11-27T05:19:12.637Z,1012.67
2018-11-27T05:20:12.649Z,1012.70
2018-11-27T05:21:12.696Z,1012.72
2018-11-27T05:22:12.664Z,1012.75
2018-11-27T05:23:12.663Z,1012.74
2018-11-27T05:24:12.677Z,1012.76
2018-11-27T05:25:12.683Z,1012.79
2018-11-27T05:26:12.711Z,1012.76
2018-11-27T05:27:12.703Z,1012.80
2018-11-27T05:28:12.706Z,1012.78
2018-11-27T05:29:12.724Z,1012.83
2018-11-27T05:30:12.727Z,1012.83
2018-11-27T05:31:12.732Z,1012.82
2018-11-27T05:32:12.742Z,1012.79
2018-11-27T05:33:12.754Z,1012.83
2018-11-27T05:34:12.762Z,1012.85
2018-11-27T05:35:12.771Z,1012.83
2018-11-27T05:37:12.789Z,1012.80
2018-11-27T05:38:12.795Z,1012.80
2018-11-27T05:39:12.803Z,1012.83
2018-11-27T05:40:12.817Z,1012.80
2018-11-27T05:41:12.823Z,1012.83
2018-11-27T05:42:12.835Z,1012.81
2018-11-27T05:43:12.842Z,1012.80
2018-11-27T05:44:12.854Z,1012.83
2018-11-27T05:45:12.857Z,1012.86
2018-11-27T05:46:12.866Z,1012.82
2018-11-27T05:47:12.881Z,1012.84
2018-11-27T05:48:12.890Z,1012.88
2018-11-27T05:49:12.897Z,1012.86
2018-11-27T05:50:12.902Z,1012.86
2018-11-27T05:51:12.912Z,1012.87
2018-11-27T05:52:12.924Z,1012.86
2018-11-27T05:53:12.929Z,1012.85
2018-11-27T05:54:12.939Z,1012.86
2018-11-27T05:55:12.970Z,1012.88
2018-11-27T05:56:12.979Z,1012.88
2018-11-27T05:57:12.972Z,1012.92
2018-11-27T05:58:12.979Z,1012.89
2018-11-27T05:59:12.981Z,1012.93
2018-11-27T06:00:12.990Z,1012.90
2018-11-27T06:01:13.009Z,1012.89
2018-11-27T06:02:13.007Z,1012.94
2018-11-27T06:03:13.022Z,1012.91
2018-11-27T06:04:13.032Z,1012.95
2018-11-27T06:05:13.039Z,1012.91
2018-11-27T06:06:13.570Z,1012.94
2018-11-27T06:07:13.050Z,1012.94
2018-11-27T06:08:13.062Z,1012.97
2018-11-27T06:09:13.069Z,1012.99
2018-11-27T06:10:13.087Z,1013.02
2018-11-27T06:11:13.085Z,1013.00
2018-11-27T06:12:13.094Z,1013.00
2018-11-27T06:13:13.116Z,1013.01
2018-11-27T06:14:13.116Z,1013.02
2018-11-27T06:15:13.144Z,1013.05
2018-11-27T06:16:13.132Z,1013.02
2018-11-27T06:17:13.138Z,1013.03
2018-11-27T06:18:13.149Z,1013.00
2018-11-27T06:19:13.158Z,1013.06
2018-11-27T06:20:13.196Z,1013.06
2018-11-27T06:21:13.174Z,1013.05
2018-11-27T06:22:13.183Z,1013.07
2018-11-27T06:23:13.195Z,1013.12
2018-11-27T06:24:13.204Z,1013.09
2018-11-27T06:25:13.212Z,1013.11
2018-11-27T06:26:13.219Z,1013.10
2018-11-27T06:27:13.229Z,1013.12
2018-11-27T06:28:13.237Z,1013.13
2018-11-27T06:29:13.254Z,1013.18
2018-11-27T06:30:13.256Z,1013.13
2018-11-27T06:31:13.262Z,1013.14
2018-11-27T06:32:13.272Z,1013.18
2018-11-27T06:33:13.335Z,1013.18
2018-11-27T06:34:13.290Z,1013.17
2018-11-27T06:35:13.298Z,1013.19
2018-11-27T06:36:13.307Z,1013.21
2018-11-27T06:37:13.315Z,1013.24
2018-11-27T06:38:13.330Z,1013.21
2018-11-27T06:39:13.335Z,1013.22
2018-11-27T06:40:13.339Z,1013.22
2018-11-27T06:41:13.351Z,1013.23
2018-11-27T06:42:13.361Z,1013.27
2018-11-27T06:43:13.372Z,1013.28
2018-11-27T06:44:13.377Z,1013.26
2018-11-27T06:45:13.386Z,1013.28
2018-11-27T06:46:13.394Z,1013.33
2018-11-27T06:47:13.400Z,1013.28
2018-11-27T06:48:13.410Z,1013.31
2018-11-27T06:49:13.419Z,1013.33
2018-11-27T06:50:13.440Z,1013.33
2018-11-27T06:51:13.438Z,1013.37
2018-11-27T06:52:13.462Z,1013.32
2018-11-27T06:53:13.461Z,1013.38
2018-11-27T06:54:13.462Z,1013.33
2018-11-27T06:55:13.587Z,1013.33
2018-11-27T06:56:13.482Z,1013.33
2018-11-27T06:57:13.523Z,1013.36
2018-11-27T06:58:13.503Z,1013.35
2018-11-27T06:59:13.506Z,1013.40
2018-11-27T07:00:13.515Z,1013.42
2018-11-27T07:01:13.528Z,1013.41
2018-11-27T07:02:13.551Z,1013.39
2018-11-27T07:03:13.542Z,1013.42
2018-11-27T07:04:13.556Z,1013.48
2018-11-27T07:05:13.566Z,1013.46
2018-11-27T07:06:13.569Z,1013.52
2018-11-27T07:07:13.577Z,1013.51
2018-11-27T07:08:13.585Z,1013.55
2018-11-27T07:09:13.634Z,1013.54
2018-11-27T07:10:13.605Z,1013.61
2018-11-27T07:11:13.610Z,1013.60
2018-11-27T07:12:13.620Z,1013.62
2018-11-27T07:13:13.630Z,1013.64
2018-11-27T07:14:13.650Z,1013.63
2018-11-27T07:15:13.648Z,1013.66
2018-11-27T07:16:13.663Z,1013.69
2018-11-27T07:17:13.663Z,1013.69
2018-11-27T07:18:13.674Z,1013.67
2018-11-27T07:19:13.685Z,1013.68
2018-11-27T07:20:13.702Z,1013.70
2018-11-27T07:21:13.702Z,1013.67
2018-11-27T07:22:13.714Z,1013.68
2018-11-27T07:23:13.727Z,1013.73
2018-11-27T07:24:13.724Z,1013.73
2018-11-27T07:25:13.740Z,1013.75
2018-11-27T07:26:13.751Z,1013.80
2018-11-27T07:27:13.752Z,1013.80
2018-11-27T07:28:13.763Z,1013.83
2018-11-27T07:29:13.771Z,1013.83
2018-11-27T07:30:13.779Z,1013.89
2018-11-27T07:31:13.785Z,1013.91
2018-11-27T07:32:13.852Z,1013.89
2018-11-27T07:33:13.808Z,1013.92
2018-11-27T07:34:13.815Z,1013.90
2018-11-27T07:35:13.826Z,1013.95
2018-11-27T07:36:13.839Z,1013.93
2018-11-27T07:37:13.839Z,1013.92
2018-11-27T07:38:13.848Z,1013.97
2018-11-27T07:39:13.854Z,1013.94
2018-11-27T07:40:13.866Z,1013.98
2018-11-27T07:41:13.875Z,1013.94
2018-11-27T07:42:13.881Z,1013.97
2018-11-27T07:43:13.891Z,1013.97
2018-11-27T07:44:13.899Z,1014.02
2018-11-27T07:45:13.927Z,1014.08
2018-11-27T07:46:13.928Z,1014.05
2018-11-27T07:47:13.930Z,1014.07
2018-11-27T07:48:13.933Z,1014.11
2018-11-27T07:49:13.945Z,1014.13
2018-11-27T07:50:13.951Z,1014.16
2018-11-27T07:51:13.962Z,1014.16
2018-11-27T07:52:13.972Z,1014.21
2018-11-27T07:53:14.960Z,1014.23
2018-11-27T07:54:14.742Z,1014.22
2018-11-27T07:55:14.751Z,1014.27
2018-11-27T07:56:14.057Z,1014.31
2018-11-27T07:57:14.015Z,1014.29
2018-11-27T07:58:14.029Z,1014.34
2018-11-27T07:59:14.053Z,1014.32
2018-11-27T08:00:14.081Z,1014.34
2018-11-27T08:01:14.048Z,1014.33
2018-11-27T08:02:14.063Z,1014.37
2018-11-27T08:03:14.069Z,1014.35
2018-11-27T08:04:14.076Z,1014.37
2018-11-27T08:05:14.083Z,1014.39
2018-11-27T08:06:14.092Z,1014.35
2018-11-27T08:07:14.112Z,1014.39
2018-11-27T08:08:14.110Z,1014.37
2018-11-27T08:09:14.118Z,1014.40
2018-11-27T08:10:14.128Z,1014.43
2018-11-27T08:11:14.135Z,1014.49
2018-11-27T08:12:14.153Z,1014.45
2018-11-27T08:13:14.161Z,1014.46
2018-11-27T08:14:14.173Z,1014.43
2018-11-27T08:15:14.174Z,1014.41
2018-11-27T08:16:14.262Z,1014.44
2018-11-27T08:17:14.255Z,1014.43
2018-11-27T08:18:14.202Z,1014.44
2018-11-27T08:19:14.212Z,1014.43
2018-11-27T08:20:14.216Z,1014.43
2018-11-27T08:21:14.236Z,1014.42
2018-11-27T08:22:14.245Z,1014.42
2018-11-27T08:23:14.273Z,1014.44
2018-11-27T08:24:14.263Z,1014.42
2018-11-27T08:25:14.267Z,1014.39
2018-11-27T08:26:15.141Z,1014.45
2018-11-27T08:27:14.310Z,1014.47
2018-11-27T08:28:14.290Z,1014.42
2018-11-27T08:29:14.304Z,1014.48
2018-11-27T08:30:14.332Z,1014.49
2018-11-27T08:31:14.331Z,1014.47
2018-11-27T08:32:14.366Z,1014.51
2018-11-27T08:33:14.333Z,1014.52
2018-11-27T08:34:14.394Z,1014.52
2018-11-27T08:35:14.347Z,1014.50
2018-11-27T08:36:14.357Z,1014.49
2018-11-27T08:37:14.363Z,1014.52
2018-11-27T08:38:14.373Z,1014.44
2018-11-27T08:39:14.381Z,1014.50
2018-11-27T08:40:14.395Z,1014.52
2018-11-27T08:41:14.400Z,1014.53
2018-11-27T08:42:14.411Z,1014.50
2018-11-27T08:43:14.421Z,1014.50
2018-11-27T08:44:14.430Z,1014.51
2018-11-27T08:45:14.457Z,1014.52
2018-11-27T08:46:14.452Z,1014.54
2018-11-27T08:47:14.457Z,1014.54
2018-11-27T08:48:14.472Z,1014.58
2018-11-27T08:49:14.472Z,1014.61
2018-11-27T08:50:14.491Z,1014.62
2018-11-27T08:51:14.494Z,1014.64
2018-11-27T08:52:14.512Z,1014.64
2018-11-27T08:53:14.511Z,1014.64
2018-11-27T08:54:14.516Z,1014.67
2018-11-27T08:55:15.292Z,1014.69
2018-11-27T08:56:14.535Z,1014.70
2018-11-27T08:57:14.544Z,1014.74
2018-11-27T08:58:14.558Z,1014.76
2018-11-27T08:59:14.593Z,1014.81
2018-11-27T09:00:14.967Z,1014.82
2018-11-27T09:01:14.580Z,1014.81
2018-11-27T09:02:14.603Z,1014.83
2018-11-27T09:03:14.617Z,1014.83
2018-11-27T09:04:14.708Z,1014.84
2018-11-27T09:05:14.619Z,1014.83
2018-11-27T09:06:14.626Z,1014.86
2018-11-27T09:07:14.641Z,1014.85
2018-11-27T09:08:14.642Z,1014.83
2018-11-27T09:09:14.652Z,1014.88
2018-11-27T09:10:14.661Z,1014.88
2018-11-27T09:11:14.671Z,1014.89
2018-11-27T09:12:14.683Z,1014.88
2018-11-27T09:13:15.033Z,1014.89
2018-11-27T09:14:14.713Z,1014.86
2018-11-27T09:15:14.715Z,1014.89
2018-11-27T09:16:14.716Z,1014.86
2018-11-27T09:17:14.725Z,1014.86
2018-11-27T09:18:14.734Z,1014.88
2018-11-27T09:19:14.747Z,1014.87
2018-11-27T09:20:14.755Z,1014.88
2018-11-27T09:21:14.763Z,1014.94
2018-11-27T09:22:14.772Z,1014.91
2018-11-27T09:23:14.783Z,1014.91
2018-11-27T09:24:14.807Z,1014.94
2018-11-27T09:25:14.797Z,1014.92
2018-11-27T09:26:14.813Z,1014.99
2018-11-27T09:27:14.816Z,1014.95
2018-11-27T09:28:14.825Z,1014.97
2018-11-27T09:29:14.839Z,1014.96
2018-11-27T09:30:14.855Z,1014.92
2018-11-27T09:31:14.860Z,1014.96
2018-11-27T09:32:14.881Z,1014.95
2018-11-27T09:33:14.869Z,1014.92
2018-11-27T09:34:14.888Z,1014.91
2018-11-27T09:35:14.899Z,1014.92
2018-11-27T09:36:14.900Z,1014.91
2018-11-27T09:37:14.913Z,1014.94
2018-11-27T09:38:14.913Z,1014.90
2018-11-27T09:39:14.923Z,1014.95
2018-11-27T09:40:14.934Z,1014.96
2018-11-27T09:41:14.961Z,1014.89
2018-11-27T09:42:14.956Z,1014.90
2018-11-27T09:43:15.014Z,1014.92
2018-11-27T09:44:14.978Z,1014.93
2018-11-27T09:45:14.979Z,1014.93
2018-11-27T09:46:14.997Z,1014.89
2018-11-27T09:47:14.996Z,1014.91
2018-11-27T09:48:15.312Z,1014.86
2018-11-27T09:49:15.016Z,1014.94
2018-11-27T09:50:15.029Z,1014.99
2018-11-27T09:51:15.058Z,1014.99
2018-11-27T09:52:15.043Z,1015.01
2018-11-27T09:53:15.052Z,1014.98
2018-11-27T09:54:15.065Z,1015.01
2018-11-27T09:55:15.122Z,1015.03
2018-11-27T09:56:15.083Z,1015.06
2018-11-27T09:57:15.089Z,1015.03
2018-11-27T09:58:15.099Z,1015.01
2018-11-27T09:59:15.119Z,1015.05
2018-11-27T10:00:15.119Z,1014.98
2018-11-27T10:01:15.201Z,1015.00
2018-11-27T10:02:15.155Z,1015.04
2018-11-27T10:03:15.146Z,1015.08
2018-11-27T10:04:15.158Z,1015.03
2018-11-27T10:05:15.170Z,1015.09
2018-11-27T10:06:15.185Z,1015.08
2018-11-27T10:07:15.186Z,1015.06
2018-11-27T10:08:15.192Z,1015.12
2018-11-27T10:09:15.202Z,1015.12
2018-11-27T10:10:15.225Z,1015.11
2018-11-27T10:11:15.719Z,1015.16
2018-11-27T10:12:15.277Z,1015.12
2018-11-27T10:13:15.243Z,1015.06
2018-11-27T10:14:15.246Z,1015.11
2018-11-27T10:15:15.257Z,1015.04
2018-11-27T10:16:15.263Z,1015.07
2018-11-27T10:17:15.278Z,1015.06
2018-11-27T10:18:15.283Z,1015.08
2018-11-27T10:19:15.304Z,1015.06
2018-11-27T10:20:15.304Z,1015.07
2018-11-27T10:21:15.314Z,1015.05
2018-11-27T10:22:15.324Z,1015.03
2018-11-27T10:23:15.332Z,1015.04
2018-11-27T10:24:15.342Z,1015.01
2018-11-27T10:25:15.352Z,1015.01
2018-11-27T10:26:15.365Z,1015.04
2018-11-27T10:27:15.387Z,1015.06
2018-11-27T10:28:15.964Z,1015.04
2018-11-27T10:29:15.392Z,1015.04
2018-11-27T10:30:15.587Z,1015.06
2018-11-27T10:31:15.627Z,1015.03
2018-11-27T10:32:15.410Z,1015.02
2018-11-27T10:33:15.427Z,1015.03
2018-11-27T10:35:15.446Z,1015.04
2018-11-27T10:36:15.463Z,1015.06
2018-11-27T10:37:15.470Z,1015.03
2018-11-27T10:38:15.476Z,1015.04
2018-11-27T10:39:15.478Z,1015.03
2018-11-27T10:40:15.491Z,1015.01
2018-11-27T10:41:15.498Z,1015.01
2018-11-27T10:42:15.505Z,1015.01
2018-11-27T10:43:19.773Z,1015.01
2018-11-27T10:44:15.549Z,1014.99
2018-11-27T10:45:15.558Z,1015.04
2018-11-27T10:46:15.555Z,1015.03
2018-11-27T10:47:15.551Z,1014.98
2018-11-27T10:48:15.578Z,1015.00
2018-11-27T10:49:15.587Z,1014.99
2018-11-27T10:50:15.589Z,1014.99
2018-11-27T10:51:15.585Z,1014.97
2018-11-27T10:52:15.692Z,1014.97
2018-11-27T10:53:15.615Z,1014.97
2018-11-27T10:54:15.615Z,1014.97
2018-11-27T10:55:15.618Z,1014.99
2018-11-27T10:56:15.634Z,1015.04
2018-11-27T10:57:15.645Z,1015.03
2018-11-27T10:58:16.010Z,1014.98
2018-11-27T11:00:15.887Z,1014.97
2018-11-27T11:01:15.679Z,1015.00
2018-11-27T11:02:15.694Z,1015.02
2018-11-27T11:03:15.827Z,1014.97
2018-11-27T11:04:15.709Z,1014.97
2018-11-27T11:05:15.735Z,1015.02
2018-11-27T11:06:15.724Z,1015.02
2018-11-27T11:07:15.766Z,1014.95
2018-11-27T11:08:15.742Z,1014.97
2018-11-27T11:09:15.761Z,1014.91
2018-11-27T11:10:15.760Z,1014.95
2018-11-27T11:11:15.776Z,1014.88
2018-11-27T11:12:15.776Z,1014.84
2018-11-27T11:13:15.840Z,1014.84
2018-11-27T11:14:15.836Z,1014.85
2018-11-27T11:15:15.807Z,1014.77
2018-11-27T11:16:15.813Z,1014.77
2018-11-27T11:17:15.824Z,1014.76
2018-11-27T11:18:15.833Z,1014.76
2018-11-27T11:19:18.340Z,1014.73
2018-11-27T11:20:15.852Z,1014.77
2018-11-27T11:21:15.859Z,1014.72
2018-11-27T11:22:15.873Z,1014.78
2018-11-27T11:23:15.893Z,1014.75
2018-11-27T11:24:15.892Z,1014.72
2018-11-27T11:25:15.899Z,1014.72
2018-11-27T11:26:15.923Z,1014.67
2018-11-27T11:27:15.916Z,1014.68
2018-11-27T11:28:15.924Z,1014.65
2018-11-27T11:29:15.957Z,1014.68
2018-11-27T11:30:15.956Z,1014.70
2018-11-27T11:31:15.953Z,1014.71
2018-11-27T11:32:15.966Z,1014.70
2018-11-27T11:33:15.972Z,1014.77
2018-11-27T11:34:16.020Z,1014.75
2018-11-27T11:35:15.998Z,1014.78
2018-11-27T11:36:16.001Z,1014.82
2018-11-27T11:37:16.007Z,1014.78
2018-11-27T11:38:16.037Z,1014.80
2018-11-27T11:39:16.034Z,1014.76
2018-11-27T11:40:16.056Z,1014.73
2018-11-27T11:41:16.046Z,1014.76
2018-11-27T11:42:16.058Z,1014.78
2018-11-27T11:43:16.067Z,1014.74
2018-11-27T11:44:16.085Z,1014.74
2018-11-27T11:45:16.102Z,1014.75
2018-11-27T11:46:16.109Z,1014.76
2018-11-27T11:47:16.106Z,1014.75
2018-11-27T11:48:16.113Z,1014.78
2018-11-27T11:49:16.127Z,1014.77
2018-11-27T11:50:16.139Z,1014.73
2018-11-27T11:51:16.142Z,1014.81
2018-11-27T11:52:17.909Z,1014.78
2018-11-27T11:53:16.520Z,1014.75
2018-11-27T11:54:16.170Z,1014.76
2018-11-27T11:55:16.188Z,1014.77
2018-11-27T11:56:16.187Z,1014.76
2018-11-27T11:57:16.201Z,1014.79
2018-11-27T11:58:17.335Z,1014.78
2018-11-27T11:59:16.216Z,1014.80
2018-11-27T12:00:16.230Z,1014.75
2018-11-27T12:01:16.234Z,1014.80
2018-11-27T12:02:16.245Z,1014.79
2018-11-27T12:03:16.254Z,1014.79
2018-11-27T12:04:16.310Z,1014.79
2018-11-27T12:05:16.273Z,1014.81
2018-11-27T12:06:16.313Z,1014.80
2018-11-27T12:07:16.407Z,1014.80
2018-11-27T12:08:16.355Z,1014.82